Time;durP1;ratioP1;P1;durP2;ratioP2;P2;SDS_P1;SDS_P2;PMS_P1;PMS_P2;Temp;Humidity;BMP_temperature;BMP_pressure;BME280_temperature;BME280_humidity;BME280_pressure;Samples;Min_cycle;Max_cycle;Signal;HPM_P1;HPM_P2
2021/12/25 00:00:52;;;;;;;8.03;3.53;;;;;;;;;;5072675;28;20872;-71
2021/12/25 00:03:19;;;;;;;6.90;3.87;;;;;;;;;;5072735;28;20456;-71
2021/12/25 00:05:48;;;;;;;3.97;3.30;;;;;;;;;;5072539;28;20471;-71
2021/12/25 00:08:15;;;;;;;9.43;4.80;;;;;;;;;;5072803;28;20546;-71
2021/12/25 00:10:43;;;;;;;4.50;3.63;;;;;;;;;;5072610;28;20448;-71
2021/12/25 00:13:10;;;;;;;4.90;3.60;;;;;;;;;;5072720;28;20455;-71
2021/12/25 00:15:38;;;;;;;3.43;3.13;;;;;;;;;;5072328;28;20475;-71
2021/12/25 00:18:05;;;;;;;4.73;3.37;;;;;;;;;;5072731;28;20459;-71
2021/12/25 00:20:32;;;;;;;4.37;3.27;;;;;;;;;;5072504;28;20487;-71
2021/12/25 00:23:00;;;;;;;6.10;3.10;;;;;;;;;;5072443;28;20462;-71
2021/12/25 00:25:31;;;;;;;11.70;3.67;;;;;;;;;;5071884;28;20984;-71
2021/12/25 00:28:06;;;;;;;2.63;2.20;;;;;;;;;;5072700;28;20455;-71
2021/12/25 00:30:39;;;;;;;3.53;1.97;;;;;;;;;;5076136;28;20465;-71
2021/12/25 00:33:19;;;;;;;3.50;2.60;;;;;;;;;;5076313;28;20483;-71
2021/12/25 00:35:47;;;;;;;4.10;2.77;;;;;;;;;;5076006;28;20497;-71
2021/12/25 00:38:14;;;;;;;4.10;2.43;;;;;;;;;;5076424;28;20451;-71
2021/12/25 00:40:41;;;;;;;3.43;2.70;;;;;;;;;;5076043;28;20996;-71
2021/12/25 00:43:09;;;;;;;4.47;2.80;;;;;;;;;;5076061;28;20447;-71
2021/12/25 00:45:36;;;;;;;5.67;2.17;;;;;;;;;;5075701;28;20934;-71
2021/12/25 00:48:05;;;;;;;4.37;3.37;;;;;;;;;;5076191;28;20467;-71
2021/12/25 00:50:32;;;;;;;2.57;2.17;;;;;;;;;;5075824;28;20450;-71
2021/12/25 00:52:59;;;;;;;3.10;2.63;;;;;;;;;;5075891;28;20467;-71
2021/12/25 00:55:26;;;;;;;2.77;2.17;;;;;;;;;;5075501;28;20502;-71
2021/12/25 00:57:53;;;;;;;4.40;2.50;;;;;;;;;;5075757;28;20451;-71
2021/12/25 01:00:22;;;;;;;3.73;2.43;;;;;;;;;;5075801;28;20483;-71
2021/12/25 01:02:49;;;;;;;2.60;2.17;;;;;;;;;;5075705;28;20451;-71
2021/12/25 01:05:17;;;;;;;4.00;3.07;;;;;;;;;;5075436;28;20838;-71
2021/12/25 01:07:45;;;;;;;4.03;2.77;;;;;;;;;;5075729;28;20486;-71
2021/12/25 01:10:16;;;;;;;3.60;3.17;;;;;;;;;;5075847;28;20454;-71
2021/12/25 01:12:55;;;;;;;4.57;3.47;;;;;;;;;;5075587;28;20444;-71
2021/12/25 01:15:31;;;;;;;4.53;3.00;;;;;;;;;;5075207;28;20471;-71
2021/12/25 01:18:14;;;;;;;3.30;2.87;;;;;;;;;;5075454;28;20943;-71
2021/12/25 01:21:02;;;;;;;3.90;2.90;;;;;;;;;;5075197;28;21004;-71
2021/12/25 01:24:08;;;;;;;4.03;2.80;;;;;;;;;;5075263;28;20470;-71
2021/12/25 01:27:09;;;;;;;4.97;3.20;;;;;;;;;;5074611;28;20451;-71
2021/12/25 01:29:43;;;;;;;4.33;3.03;;;;;;;;;;5075033;28;20963;-71
2021/12/25 01:35:27;;;;;;;4.50;2.87;;;;;;;;;;5072789;28;20596;-71
2021/12/25 01:38:08;;;;;;;3.73;2.33;;;;;;;;;;5075206;28;20456;-71
2021/12/25 01:40:54;;;;;;;4.47;2.93;;;;;;;;;;5074417;28;20987;-71
2021/12/25 01:48:52;;;;;;;3.40;2.80;;;;;;;;;;5074880;28;20439;-71
2021/12/25 01:51:19;;;;;;;4.90;2.67;;;;;;;;;;5074810;28;20461;-71
2021/12/25 01:53:47;;;;;;;3.87;2.50;;;;;;;;;;5074618;28;20467;-71
2021/12/25 01:56:14;;;;;;;4.80;2.53;;;;;;;;;;5074717;28;20840;-71
2021/12/25 01:58:41;;;;;;;3.63;2.60;;;;;;;;;;5074595;28;20459;-71
2021/12/25 02:01:09;;;;;;;3.53;2.50;;;;;;;;;;5074596;28;20992;-71
2021/12/25 02:03:37;;;;;;;4.10;2.53;;;;;;;;;;5074443;28;20456;-71
2021/12/25 02:06:08;;;;;;;7.10;2.50;;;;;;;;;;5074663;28;20480;-71
2021/12/25 02:08:35;;;;;;;4.93;3.00;;;;;;;;;;5074404;28;20451;-71
2021/12/25 02:11:02;;;;;;;3.93;2.63;;;;;;;;;;5074767;28;20444;-71
2021/12/25 02:13:29;;;;;;;3.40;2.13;;;;;;;;;;5074255;28;20815;-72
2021/12/25 02:15:57;;;;;;;3.40;2.80;;;;;;;;;;5074252;28;20472;-71
2021/12/25 02:18:29;;;;;;;3.13;2.53;;;;;;;;;;5074244;28;20749;-71
2021/12/25 02:21:07;;;;;;;5.20;2.80;;;;;;;;;;5074119;28;20484;-71
2021/12/25 02:23:34;;;;;;;4.77;2.50;;;;;;;;;;5074069;28;20443;-71
2021/12/25 02:26:01;;;;;;;6.47;2.93;;;;;;;;;;5073369;28;20480;-72
2021/12/25 02:28:28;;;;;;;2.77;2.30;;;;;;;;;;5073880;28;22121;-71
2021/12/25 02:30:57;;;;;;;4.90;3.30;;;;;;;;;;5074009;28;20443;-71
2021/12/25 02:33:25;;;;;;;2.73;2.20;;;;;;;;;;5073992;28;20482;-72
2021/12/25 02:35:53;;;;;;;3.83;3.03;;;;;;;;;;5073744;28;20525;-72
2021/12/25 02:38:21;;;;;;;3.40;2.70;;;;;;;;;;5073826;28;20456;-71
2021/12/25 02:40:48;;;;;;;3.60;2.60;;;;;;;;;;5073693;28;20487;-71
2021/12/25 02:43:16;;;;;;;3.10;2.80;;;;;;;;;;5073951;28;20976;-71
2021/12/25 02:45:43;;;;;;;3.67;3.13;;;;;;;;;;5073702;28;20474;-71
2021/12/25 02:48:11;;;;;;;3.07;2.77;;;;;;;;;;5073741;28;20451;-71
2021/12/25 02:50:40;;;;;;;5.00;2.93;;;;;;;;;;5073356;28;20450;-71
2021/12/25 02:53:08;;;;;;;6.30;3.37;;;;;;;;;;5073284;28;20447;-71
2021/12/25 02:55:38;;;;;;;6.83;5.50;;;;;;;;;;5073176;28;20467;-71
2021/12/25 02:58:06;;;;;;;7.67;5.23;;;;;;;;;;5073521;28;20825;-71
2021/12/25 03:00:38;;;;;;;11.23;6.60;;;;;;;;;;5073284;28;20487;-71
2021/12/25 03:03:07;;;;;;;17.33;6.97;;;;;;;;;;5073415;28;20447;-71
2021/12/25 03:05:34;;;;;;;7.60;4.10;;;;;;;;;;5073127;28;20525;-71
2021/12/25 03:08:02;;;;;;;5.90;3.70;;;;;;;;;;5073216;28;20448;-71
2021/12/25 03:10:31;;;;;;;6.43;4.30;;;;;;;;;;5073210;28;20458;-71
2021/12/25 03:13:17;;;;;;;5.30;3.70;;;;;;;;;;5073295;28;20948;-71
2021/12/25 03:15:46;;;;;;;6.03;4.63;;;;;;;;;;5073083;28;20507;-71
2021/12/25 03:18:13;;;;;;;19.63;13.23;;;;;;;;;;5073233;28;20936;-71
2021/12/25 03:20:44;;;;;;;24.07;13.13;;;;;;;;;;5072987;28;20479;-71
2021/12/25 03:23:11;;;;;;;12.40;7.40;;;;;;;;;;5073369;28;20467;-71
2021/12/25 03:25:39;;;;;;;8.53;5.83;;;;;;;;;;5072267;28;20471;-71
2021/12/25 03:28:07;;;;;;;6.40;5.47;;;;;;;;;;5073102;28;20457;-71
2021/12/25 03:30:37;;;;;;;8.00;5.50;;;;;;;;;;5073046;28;20444;-71
2021/12/25 03:33:05;;;;;;;6.17;4.80;;;;;;;;;;5073141;28;20967;-71
2021/12/25 03:35:33;;;;;;;13.53;4.50;;;;;;;;;;5072638;28;20833;-71
2021/12/25 03:38:00;;;;;;;5.83;3.70;;;;;;;;;;5073465;28;20949;-71
2021/12/25 03:40:27;;;;;;;5.73;4.23;;;;;;;;;;5072927;28;20971;-71
2021/12/25 03:42:55;;;;;;;15.27;10.10;;;;;;;;;;5073151;28;20463;-71
2021/12/25 03:45:23;;;;;;;4.80;3.73;;;;;;;;;;5072562;28;20841;-71
2021/12/25 03:48:02;;;;;;;6.60;4.43;;;;;;;;;;5073186;28;20443;-71
2021/12/25 03:53:25;;;;;;;3.70;2.40;;;;;;;;;;5072965;28;20427;-71
2021/12/25 03:58:37;;;;;;;4.53;3.37;;;;;;;;;;5072808;28;20423;-71
2021/12/25 04:01:24;;;;;;;7.17;3.70;;;;;;;;;;5072821;28;20483;-71
2021/12/25 04:04:04;;;;;;;6.07;3.50;;;;;;;;;;5075573;28;20455;-71
2021/12/25 04:06:32;;;;;;;6.83;4.50;;;;;;;;;;5076909;28;20452;-71
2021/12/25 04:09:01;;;;;;;7.03;5.37;;;;;;;;;;5076913;28;20454;-71
2021/12/25 04:11:31;;;;;;;12.93;8.80;;;;;;;;;;5076658;28;20512;-71
2021/12/25 04:13:58;;;;;;;9.27;5.97;;;;;;;;;;5076301;28;20463;-71
2021/12/25 04:16:27;;;;;;;7.13;5.23;;;;;;;;;;5076650;28;20482;-71
2021/12/25 04:18:54;;;;;;;8.33;5.50;;;;;;;;;;5076641;28;20951;-71
2021/12/25 04:21:23;;;;;;;6.03;4.43;;;;;;;;;;5076368;28;20569;-71
2021/12/25 04:23:50;;;;;;;6.17;4.53;;;;;;;;;;5076312;28;20451;-71
2021/12/25 04:26:19;;;;;;;6.67;4.60;;;;;;;;;;5076245;28;20827;-71
2021/12/25 04:28:58;;;;;;;8.33;5.03;;;;;;;;;;5076303;28;20558;-71
2021/12/25 04:31:34;;;;;;;6.97;4.80;;;;;;;;;;5076219;28;20469;-71
2021/12/25 04:48:45;;;;;;;5.63;4.60;;;;;;;;;;5073865;28;20511;-71
2021/12/25 05:02:05;;;;;;;7.20;5.73;;;;;;;;;;5075880;28;20532;-71
2021/12/25 05:04:38;;;;;;;6.10;5.30;;;;;;;;;;5075335;28;20490;-71
2021/12/25 05:07:06;;;;;;;7.63;5.17;;;;;;;;;;5075811;28;20456;-71
2021/12/25 05:09:33;;;;;;;10.23;6.00;;;;;;;;;;5075510;28;20461;-71
2021/12/25 05:12:00;;;;;;;13.00;5.90;;;;;;;;;;5075709;28;20808;-71
2021/12/25 05:14:27;;;;;;;10.73;6.80;;;;;;;;;;5074421;28;20475;-71
2021/12/25 05:16:54;;;;;;;13.03;5.77;;;;;;;;;;5075441;28;20455;-71
2021/12/25 05:19:21;;;;;;;27.20;16.90;;;;;;;;;;5075339;28;20463;-71
2021/12/25 05:21:50;;;;;;;16.70;9.87;;;;;;;;;;5075313;28;20483;-71
2021/12/25 05:24:17;;;;;;;12.37;6.73;;;;;;;;;;5074937;28;20483;-71
2021/12/25 05:26:44;;;;;;;6.17;5.30;;;;;;;;;;5075361;28;20463;-71
2021/12/25 05:29:11;;;;;;;7.17;4.73;;;;;;;;;;5075246;28;20538;-71
2021/12/25 05:31:39;;;;;;;10.67;6.23;;;;;;;;;;5075088;28;20443;-71
2021/12/25 05:34:06;;;;;;;6.63;5.40;;;;;;;;;;5074857;28;20473;-71
2021/12/25 05:36:33;;;;;;;6.73;5.17;;;;;;;;;;5074997;28;20462;-71
2021/12/25 05:39:04;;;;;;;7.83;5.80;;;;;;;;;;5075124;28;20475;-71
2021/12/25 05:41:32;;;;;;;24.13;13.93;;;;;;;;;;5075245;28;21045;-71
2021/12/25 05:43:59;;;;;;;9.70;7.40;;;;;;;;;;5074687;28;20452;-71
2021/12/25 05:46:27;;;;;;;11.63;6.83;;;;;;;;;;5074749;28;20940;-71
2021/12/25 05:48:54;;;;;;;9.00;6.60;;;;;;;;;;5074890;28;20460;-71
2021/12/25 05:51:21;;;;;;;8.43;6.10;;;;;;;;;;5074905;28;20452;-71
2021/12/25 05:53:49;;;;;;;7.90;6.17;;;;;;;;;;5074590;28;20452;-72
2021/12/25 05:56:17;;;;;;;7.63;5.67;;;;;;;;;;5074861;28;20488;-72
2021/12/25 05:58:45;;;;;;;9.33;6.40;;;;;;;;;;5074778;28;20452;-72
2021/12/25 06:01:12;;;;;;;9.60;6.70;;;;;;;;;;5074284;28;20447;-71
2021/12/25 06:03:39;;;;;;;9.60;6.20;;;;;;;;;;5074497;28;20955;-71
2021/12/25 06:06:07;;;;;;;14.77;10.77;;;;;;;;;;5074539;28;20482;-71
2021/12/25 06:08:34;;;;;;;16.23;8.50;;;;;;;;;;5074475;28;20954;-71
2021/12/25 06:11:02;;;;;;;14.30;8.17;;;;;;;;;;5074545;28;20452;-71
2021/12/25 06:13:31;;;;;;;10.70;7.77;;;;;;;;;;5074206;28;20455;-71
2021/12/25 06:15:58;;;;;;;13.70;8.60;;;;;;;;;;5074243;28;20821;-71
2021/12/25 06:18:26;;;;;;;12.00;8.37;;;;;;;;;;5074333;28;20452;-71
2021/12/25 06:20:53;;;;;;;8.97;6.80;;;;;;;;;;5074199;28;20452;-71
2021/12/25 06:23:20;;;;;;;10.00;7.20;;;;;;;;;;5074096;28;20853;-71
2021/12/25 06:25:47;;;;;;;26.60;15.60;;;;;;;;;;5073335;28;20478;-71
2021/12/25 06:28:14;;;;;;;17.10;10.97;;;;;;;;;;5074090;28;20474;-71
2021/12/25 06:30:44;;;;;;;15.73;11.00;;;;;;;;;;5074161;28;20440;-71
2021/12/25 06:33:11;;;;;;;14.17;9.37;;;;;;;;;;5074369;28;20509;-71
2021/12/25 06:35:38;;;;;;;11.13;9.10;;;;;;;;;;5073621;28;20471;-71
2021/12/25 06:38:05;;;;;;;10.40;8.27;;;;;;;;;;5073930;28;20959;-71
2021/12/25 06:40:32;;;;;;;16.90;9.40;;;;;;;;;;5073614;28;20453;-71
2021/12/25 06:43:01;;;;;;;11.53;8.87;;;;;;;;;;5073712;28;20487;-71
2021/12/25 06:45:29;;;;;;;14.93;9.43;;;;;;;;;;5073396;28;20566;-71
2021/12/25 06:47:57;;;;;;;12.80;9.00;;;;;;;;;;5073839;28;20474;-71
2021/12/25 06:50:25;;;;;;;16.93;9.90;;;;;;;;;;5073752;28;20510;-71
2021/12/25 06:52:52;;;;;;;10.47;8.67;;;;;;;;;;5073759;28;20498;-71
2021/12/25 06:55:20;;;;;;;16.70;10.73;;;;;;;;;;5073253;28;20475;-71
2021/12/25 06:57:53;;;;;;;13.60;9.80;;;;;;;;;;5073699;28;20456;-71
2021/12/25 07:00:20;;;;;;;14.50;10.97;;;;;;;;;;5073218;28;20463;-71
2021/12/25 07:02:48;;;;;;;19.77;12.00;;;;;;;;;;5073497;28;20992;-71
2021/12/25 07:05:16;;;;;;;18.17;11.83;;;;;;;;;;5073221;28;20472;-71
2021/12/25 07:07:44;;;;;;;23.70;14.60;;;;;;;;;;5073621;28;20452;-71
2021/12/25 07:10:11;;;;;;;25.43;16.13;;;;;;;;;;5073534;28;20505;-71
2021/12/25 07:12:43;;;;;;;28.43;17.53;;;;;;;;;;5073319;28;21004;-71
2021/12/25 07:15:10;;;;;;;27.10;15.87;;;;;;;;;;5073099;28;20481;-71
2021/12/25 07:17:37;;;;;;;17.70;12.37;;;;;;;;;;5073304;28;20462;-71
2021/12/25 07:20:05;;;;;;;26.53;15.67;;;;;;;;;;5073253;28;20808;-71
2021/12/25 07:22:34;;;;;;;19.63;12.70;;;;;;;;;;5073164;28;20553;-71
2021/12/25 07:25:01;;;;;;;19.80;11.93;;;;;;;;;;5072561;28;20961;-71
2021/12/25 07:27:28;;;;;;;16.40;11.87;;;;;;;;;;5073142;28;20456;-71
2021/12/25 07:29:56;;;;;;;12.07;8.90;;;;;;;;;;5073051;28;20979;-71
2021/12/25 07:32:23;;;;;;;14.27;10.97;;;;;;;;;;5073177;28;20448;-71
2021/12/25 07:34:51;;;;;;;17.43;11.60;;;;;;;;;;5072692;28;20476;-71
2021/12/25 07:37:19;;;;;;;15.70;11.27;;;;;;;;;;5072614;28;20962;-71
2021/12/25 07:39:47;;;;;;;17.13;11.93;;;;;;;;;;5072993;28;20452;-71
2021/12/25 07:42:15;;;;;;;15.17;11.30;;;;;;;;;;5072977;28;20483;-71
2021/12/25 07:44:43;;;;;;;14.80;11.57;;;;;;;;;;5072911;28;20472;-71
2021/12/25 07:47:11;;;;;;;16.17;11.97;;;;;;;;;;5072683;28;20476;-71
2021/12/25 07:49:38;;;;;;;14.27;10.63;;;;;;;;;;5072806;28;20448;-71
2021/12/25 07:52:06;;;;;;;14.70;10.30;;;;;;;;;;5072873;28;20448;-71
2021/12/25 07:54:33;;;;;;;16.40;11.90;;;;;;;;;;5072485;28;20499;-71
2021/12/25 07:57:02;;;;;;;15.03;10.87;;;;;;;;;;5072859;28;20439;-71
2021/12/25 07:59:29;;;;;;;11.70;9.27;;;;;;;;;;5072799;28;20804;-71
2021/12/25 08:01:56;;;;;;;12.20;8.90;;;;;;;;;;5072582;28;20448;-71
2021/12/25 08:04:23;;;;;;;12.80;9.20;;;;;;;;;;5072471;28;20478;-71
2021/12/25 08:06:51;;;;;;;19.93;9.40;;;;;;;;;;5072841;28;20960;-71
2021/12/25 08:09:27;;;;;;;13.17;9.20;;;;;;;;;;5072855;28;20448;-71
2021/12/25 08:11:55;;;;;;;12.00;9.03;;;;;;;;;;5072813;28;20451;-71
2021/12/25 08:14:25;;;;;;;11.87;8.03;;;;;;;;;;5072403;28;20977;-71
2021/12/25 08:16:52;;;;;;;11.17;8.83;;;;;;;;;;5072639;28;20499;-71
2021/12/25 08:19:20;;;;;;;17.77;9.33;;;;;;;;;;5069719;28;20467;-71
2021/12/25 08:21:47;;;;;;;11.10;8.77;;;;;;;;;;5070886;28;20550;-71
2021/12/25 08:24:14;;;;;;;10.40;8.07;;;;;;;;;;5070937;28;20518;-72
2021/12/25 08:26:41;;;;;;;12.07;8.40;;;;;;;;;;5070268;28;21060;-71
2021/12/25 08:29:09;;;;;;;10.10;8.40;;;;;;;;;;5070983;28;20463;-71
2021/12/25 08:31:37;;;;;;;12.37;8.57;;;;;;;;;;5070979;28;20833;-71
2021/12/25 08:34:05;;;;;;;9.00;7.27;;;;;;;;;;5070795;28;20966;-71
2021/12/25 08:36:32;;;;;;;11.20;7.90;;;;;;;;;;5071135;28;20451;-71
2021/12/25 08:38:59;;;;;;;10.77;8.67;;;;;;;;;;5068684;28;20944;-71
2021/12/25 08:41:29;;;;;;;13.43;9.87;;;;;;;;;;5070768;28;20509;-71
2021/12/25 08:43:59;;;;;;;11.93;7.63;;;;;;;;;;5070485;28;20491;-71
2021/12/25 08:46:43;;;;;;;9.73;8.70;;;;;;;;;;5070627;28;21040;-71
2021/12/25 08:49:15;;;;;;;13.20;9.00;;;;;;;;;;5070835;28;20884;-71
2021/12/25 08:51:43;;;;;;;8.30;6.57;;;;;;;;;;5074331;28;20527;-71
2021/12/25 08:54:10;;;;;;;8.37;6.60;;;;;;;;;;5074237;28;20459;-71
2021/12/25 08:56:37;;;;;;;8.80;6.43;;;;;;;;;;5074300;28;20458;-71
2021/12/25 08:59:04;;;;;;;7.43;6.60;;;;;;;;;;5074251;28;20825;-71
2021/12/25 09:01:31;;;;;;;9.33;7.90;;;;;;;;;;5074275;28;21089;-71
2021/12/25 09:03:59;;;;;;;11.20;8.13;;;;;;;;;;5074103;28;20488;-71
2021/12/25 09:06:28;;;;;;;9.77;7.37;;;;;;;;;;5074013;28;20456;-71
2021/12/25 09:08:55;;;;;;;10.10;8.40;;;;;;;;;;5074069;28;20513;-71
2021/12/25 09:11:22;;;;;;;9.50;6.73;;;;;;;;;;5074583;28;20448;-71
2021/12/25 09:13:49;;;;;;;41.60;19.67;;;;;;;;;;5073843;28;20443;-71
2021/12/25 09:16:16;;;;;;;27.33;22.07;;;;;;;;;;5073900;28;20468;-71
2021/12/25 09:18:44;;;;;;;21.83;16.90;;;;;;;;;;5073882;28;20455;-71
2021/12/25 09:21:11;;;;;;;16.53;14.00;;;;;;;;;;5074016;28;20808;-71
2021/12/25 09:23:40;;;;;;;9.20;7.87;;;;;;;;;;5073641;28;20491;-71
2021/12/25 09:26:07;;;;;;;16.77;11.20;;;;;;;;;;5073584;28;20475;-71
2021/12/25 09:28:34;;;;;;;14.93;12.13;;;;;;;;;;5073820;28;20460;-71
2021/12/25 09:31:01;;;;;;;21.83;14.40;;;;;;;;;;5073809;28;20447;-71
2021/12/25 09:33:30;;;;;;;12.50;9.00;;;;;;;;;;5073519;28;20455;-71
2021/12/25 09:35:57;;;;;;;13.87;9.60;;;;;;;;;;5073680;28;20479;-72
2021/12/25 09:38:24;;;;;;;18.30;14.73;;;;;;;;;;5073542;28;20452;-72
2021/12/25 09:40:52;;;;;;;16.10;12.47;;;;;;;;;;5073687;28;20464;-72
2021/12/25 09:43:19;;;;;;;10.70;8.30;;;;;;;;;;5073591;28;20487;-72
2021/12/25 09:45:47;;;;;;;12.67;10.07;;;;;;;;;;5073041;28;20533;-72
2021/12/25 09:48:14;;;;;;;13.37;8.50;;;;;;;;;;5073432;28;20459;-72
2021/12/25 09:50:41;;;;;;;12.30;8.97;;;;;;;;;;5073574;28;20487;-71
2021/12/25 09:53:09;;;;;;;13.33;9.00;;;;;;;;;;5073442;28;20948;-72
2021/12/25 09:55:38;;;;;;;10.40;8.70;;;;;;;;;;5072953;28;20880;-71
2021/12/25 09:58:07;;;;;;;8.70;7.50;;;;;;;;;;5073329;28;20455;-72
2021/12/25 10:00:36;;;;;;;13.00;7.07;;;;;;;;;;5072561;28;20949;-72
2021/12/25 10:03:03;;;;;;;11.50;8.63;;;;;;;;;;5073097;28;20490;-72
2021/12/25 10:05:32;;;;;;;13.40;9.80;;;;;;;;;;5072850;28;20471;-72
2021/12/25 10:08:04;;;;;;;12.33;9.20;;;;;;;;;;5073081;28;20483;-72
2021/12/25 10:10:40;;;;;;;15.03;10.50;;;;;;;;;;5072844;28;20448;-72
2021/12/25 10:13:19;;;;;;;16.80;12.47;;;;;;;;;;5072874;28;20483;-72
2021/12/25 10:15:46;;;;;;;14.83;10.53;;;;;;;;;;5073521;28;20470;-71
2021/12/25 10:18:14;;;;;;;16.50;11.70;;;;;;;;;;5074548;28;20451;-71
2021/12/25 10:20:42;;;;;;;14.50;9.37;;;;;;;;;;5073444;28;20456;-72
2021/12/25 10:23:12;;;;;;;10.57;7.93;;;;;;;;;;5073865;28;20855;-71
2021/12/25 10:25:44;;;;;;;10.47;8.13;;;;;;;;;;5073588;28;20498;-71
2021/12/25 10:28:11;;;;;;;12.27;8.60;;;;;;;;;;5073980;28;20532;-71
2021/12/25 10:30:47;;;;;;;11.57;8.17;;;;;;;;;;5073976;28;20456;-71
2021/12/25 10:33:24;;;;;;;14.90;8.00;;;;;;;;;;5074099;28;20456;-71
2021/12/25 10:35:51;;;;;;;12.80;9.73;;;;;;;;;;5073879;28;20483;-71
2021/12/25 10:38:21;;;;;;;14.10;10.37;;;;;;;;;;5073229;28;20827;-71
2021/12/25 10:40:49;;;;;;;16.03;10.30;;;;;;;;;;5073927;28;20452;-71
2021/12/25 10:43:21;;;;;;;9.90;7.20;;;;;;;;;;5073729;28;20480;-71
2021/12/25 10:46:00;;;;;;;6.83;5.90;;;;;;;;;;5073550;28;20455;-71
2021/12/25 10:48:29;;;;;;;5.57;5.00;;;;;;;;;;5073875;28;20447;-71
2021/12/25 10:50:56;;;;;;;7.10;5.70;;;;;;;;;;5073604;28;20455;-71
2021/12/25 10:53:24;;;;;;;6.07;5.40;;;;;;;;;;5073555;28;20843;-71
2021/12/25 10:55:52;;;;;;;7.20;6.50;;;;;;;;;;5073621;28;20468;-71
2021/12/25 10:58:19;;;;;;;12.00;7.50;;;;;;;;;;5073788;28;20941;-71
2021/12/25 11:00:50;;;;;;;13.80;8.00;;;;;;;;;;5073610;28;20555;-71
2021/12/25 11:03:26;;;;;;;6.03;4.97;;;;;;;;;;5073384;28;20494;-71
2021/12/25 11:05:53;;;;;;;7.97;5.10;;;;;;;;;;5073706;28;20983;-71
2021/12/25 11:08:22;;;;;;;7.67;5.53;;;;;;;;;;5073475;28;20829;-71
2021/12/25 11:10:50;;;;;;;7.80;5.57;;;;;;;;;;5073563;28;20952;-71
2021/12/25 11:13:19;;;;;;;8.07;6.27;;;;;;;;;;5072742;28;20440;-71
2021/12/25 11:15:47;;;;;;;9.53;7.30;;;;;;;;;;5073196;28;20987;-71
2021/12/25 11:18:15;;;;;;;9.30;7.63;;;;;;;;;;5073474;28;20455;-71
2021/12/25 11:20:46;;;;;;;7.73;7.00;;;;;;;;;;5073387;28;20460;-71
2021/12/25 11:23:14;;;;;;;14.20;8.60;;;;;;;;;;5073209;28;20541;-71
2021/12/25 11:25:42;;;;;;;10.63;8.20;;;;;;;;;;5072444;28;20475;-71
2021/12/25 11:28:10;;;;;;;9.73;8.27;;;;;;;;;;5073271;28;21070;-71
2021/12/25 11:30:39;;;;;;;8.97;7.73;;;;;;;;;;5073201;28;20462;-71
2021/12/25 11:33:07;;;;;;;9.63;7.27;;;;;;;;;;5073304;28;20534;-71
2021/12/25 11:35:35;;;;;;;8.27;7.47;;;;;;;;;;5072440;28;20486;-71
2021/12/25 11:38:05;;;;;;;9.43;7.30;;;;;;;;;;5071385;28;20932;-72
2021/12/25 11:40:33;;;;;;;7.10;6.40;;;;;;;;;;5072866;28;20447;-71
2021/12/25 11:43:03;;;;;;;7.80;6.70;;;;;;;;;;5072850;28;20462;-72
2021/12/25 11:45:33;;;;;;;10.70;7.67;;;;;;;;;;5072670;28;20996;-72
2021/12/25 11:48:02;;;;;;;9.27;6.70;;;;;;;;;;5072962;28;20509;-72
2021/12/25 11:50:39;;;;;;;7.07;5.20;;;;;;;;;;5072976;28;20455;-72
2021/12/25 11:53:15;;;;;;;7.13;5.87;;;;;;;;;;5073044;28;20907;-72
2021/12/25 11:56:16;;;;;;;7.60;4.43;;;;;;;;;;5072648;28;20467;-72
2021/12/25 11:58:48;;;;;;;6.77;4.60;;;;;;;;;;5072860;28;20863;-72
2021/12/25 12:01:19;;;;;;;5.27;3.20;;;;;;;;;;5072859;28;20451;-72
2021/12/25 12:03:52;;;;;;;6.10;3.50;;;;;;;;;;5072498;28;20479;-72
2021/12/25 12:06:19;;;;;;;4.17;2.03;;;;;;;;;;5072811;28;20875;-72
2021/12/25 12:09:09;;;;;;;2.60;2.00;;;;;;;;;;5072794;28;20474;-72
2021/12/25 12:11:40;;;;;;;4.40;2.60;;;;;;;;;;5072660;28;20879;-72
2021/12/25 12:14:14;;;;;;;6.07;3.63;;;;;;;;;;5072737;28;20554;-72
2021/12/25 12:16:43;;;;;;;31.60;17.00;;;;;;;;;;5072898;28;20958;-71
2021/12/25 12:19:25;;;;;;;11.77;6.53;;;;;;;;;;5072943;28;20451;-71
2021/12/25 12:21:52;;;;;;;78.13;34.87;;;;;;;;;;5072536;28;20443;-71
2021/12/25 12:24:41;;;;;;;72.17;33.77;;;;;;;;;;5074066;28;20487;-71
2021/12/25 12:27:09;;;;;;;15.73;8.90;;;;;;;;;;5075970;28;20467;-71
2021/12/25 12:29:44;;;;;;;42.30;20.97;;;;;;;;;;5076362;28;20833;-71
2021/12/25 12:32:26;;;;;;;42.33;22.70;;;;;;;;;;5076392;28;20459;-71
2021/12/25 12:34:54;;;;;;;7.97;6.10;;;;;;;;;;5076178;28;20489;-71
2021/12/25 12:37:28;;;;;;;3.10;2.50;;;;;;;;;;5076245;28;20462;-71
2021/12/25 12:40:14;;;;;;;4.13;2.80;;;;;;;;;;5076341;28;20442;-71
2021/12/25 12:42:57;;;;;;;5.50;3.87;;;;;;;;;;5076060;28;20479;-71
2021/12/25 12:45:26;;;;;;;6.30;3.90;;;;;;;;;;5075844;28;20571;-72
2021/12/25 12:48:14;;;;;;;4.83;3.47;;;;;;;;;;5076187;28;20444;-72
2021/12/25 12:50:42;;;;;;;6.00;3.97;;;;;;;;;;5076144;28;21060;-72
2021/12/25 12:53:09;;;;;;;5.90;4.83;;;;;;;;;;5076249;28;20454;-72
2021/12/25 12:55:38;;;;;;;9.30;5.43;;;;;;;;;;5075923;28;20460;-72
2021/12/25 12:58:11;;;;;;;8.00;5.87;;;;;;;;;;5075985;28;20456;-71
2021/12/25 13:00:39;;;;;;;5.60;4.77;;;;;;;;;;5075760;28;20462;-72
2021/12/25 13:03:06;;;;;;;6.27;4.33;;;;;;;;;;5075857;28;21015;-72
2021/12/25 13:05:36;;;;;;;7.10;3.93;;;;;;;;;;5075411;28;20869;-72
2021/12/25 13:08:11;;;;;;;5.90;4.00;;;;;;;;;;5075818;28;20546;-72
2021/12/25 13:10:43;;;;;;;12.43;9.63;;;;;;;;;;5075694;28;20451;-72
2021/12/25 13:13:13;;;;;;;8.30;5.50;;;;;;;;;;5075684;28;20945;-72
2021/12/25 13:15:42;;;;;;;7.83;4.97;;;;;;;;;;5075258;28;20600;-72
2021/12/25 13:18:09;;;;;;;4.73;3.80;;;;;;;;;;5075496;28;20474;-72
2021/12/25 13:20:39;;;;;;;4.83;4.23;;;;;;;;;;5075370;28;20452;-72
2021/12/25 13:23:07;;;;;;;6.93;4.67;;;;;;;;;;5075407;28;20451;-72
2021/12/25 13:25:34;;;;;;;6.70;4.23;;;;;;;;;;5074606;28;20988;-72
2021/12/25 13:28:02;;;;;;;6.03;4.10;;;;;;;;;;5075312;28;20447;-72
2021/12/25 13:30:31;;;;;;;5.20;4.63;;;;;;;;;;5075195;28;20466;-72
2021/12/25 13:33:07;;;;;;;6.60;4.60;;;;;;;;;;5075317;28;20455;-72
2021/12/25 13:35:34;;;;;;;7.87;5.07;;;;;;;;;;5073648;28;20463;-72
2021/12/25 13:38:02;;;;;;;5.90;4.63;;;;;;;;;;5075273;28;20462;-72
2021/12/25 13:40:30;;;;;;;11.07;5.63;;;;;;;;;;5075096;28;20447;-72
2021/12/25 13:43:04;;;;;;;8.07;5.23;;;;;;;;;;5075193;28;20452;-72
2021/12/25 13:45:32;;;;;;;6.87;5.20;;;;;;;;;;5074536;28;20500;-71
2021/12/25 13:48:00;;;;;;;7.30;4.87;;;;;;;;;;5075002;28;20448;-71
2021/12/25 13:50:27;;;;;;;10.33;4.40;;;;;;;;;;5074925;28;20471;-71
2021/12/25 13:52:58;;;;;;;7.77;4.90;;;;;;;;;;5074919;28;20456;-72
2021/12/25 13:55:26;;;;;;;7.60;6.23;;;;;;;;;;5074496;28;20573;-71
2021/12/25 13:57:54;;;;;;;5.80;3.90;;;;;;;;;;5074992;28;20452;-71
2021/12/25 14:00:22;;;;;;;6.83;4.20;;;;;;;;;;5073485;28;20464;-72
2021/12/25 14:02:52;;;;;;;4.97;4.57;;;;;;;;;;5074844;28;20456;-71
2021/12/25 14:05:20;;;;;;;7.00;4.60;;;;;;;;;;5074218;28;20492;-72
2021/12/25 14:07:48;;;;;;;7.57;4.60;;;;;;;;;;5074573;28;20456;-72
2021/12/25 14:10:17;;;;;;;5.80;3.97;;;;;;;;;;5074589;28;20944;-71
2021/12/25 14:12:46;;;;;;;9.43;5.80;;;;;;;;;;5074385;28;20459;-71
2021/12/25 14:15:14;;;;;;;14.10;7.40;;;;;;;;;;5074243;28;20490;-72
2021/12/25 14:17:43;;;;;;;7.73;6.90;;;;;;;;;;5074467;28;20467;-71
2021/12/25 14:20:16;;;;;;;11.20;8.10;;;;;;;;;;5074482;28;20448;-71
2021/12/25 14:22:44;;;;;;;6.97;5.30;;;;;;;;;;5074355;28;20444;-71
2021/12/25 14:25:20;;;;;;;7.10;6.23;;;;;;;;;;5073492;28;20496;-72
2021/12/25 14:27:59;;;;;;;5.50;4.20;;;;;;;;;;5074360;28;20460;-71
2021/12/25 14:30:26;;;;;;;10.13;7.30;;;;;;;;;;5073957;28;20467;-71
2021/12/25 14:32:54;;;;;;;12.63;7.47;;;;;;;;;;5074220;28;20456;-71
2021/12/25 14:35:23;;;;;;;8.47;7.53;;;;;;;;;;5073728;28;20471;-71
2021/12/25 14:37:54;;;;;;;8.00;5.77;;;;;;;;;;5073837;28;20456;-71
2021/12/25 14:40:22;;;;;;;8.00;5.73;;;;;;;;;;5073859;28;20470;-71
2021/12/25 14:42:53;;;;;;;9.33;6.97;;;;;;;;;;5073415;28;20470;-71
2021/12/25 14:45:21;;;;;;;7.53;6.73;;;;;;;;;;5073332;28;20594;-71
2021/12/25 14:47:49;;;;;;;8.90;6.70;;;;;;;;;;5072893;28;20455;-71
2021/12/25 14:50:17;;;;;;;10.40;7.20;;;;;;;;;;5073685;28;20448;-71
2021/12/25 14:52:46;;;;;;;8.63;7.10;;;;;;;;;;5073726;28;20471;-72
2021/12/25 14:55:14;;;;;;;10.43;7.77;;;;;;;;;;5073526;28;20471;-72
2021/12/25 14:57:41;;;;;;;9.17;8.27;;;;;;;;;;5073489;28;20459;-72
2021/12/25 15:00:09;;;;;;;9.37;8.37;;;;;;;;;;5073696;28;20932;-72
2021/12/25 15:02:36;;;;;;;14.20;7.87;;;;;;;;;;5073485;28;20452;-71
2021/12/25 15:05:04;;;;;;;19.23;11.70;;;;;;;;;;5073067;28;20487;-72
2021/12/25 15:07:34;;;;;;;13.23;10.60;;;;;;;;;;5073346;28;20451;-72
2021/12/25 15:10:09;;;;;;;12.93;9.77;;;;;;;;;;5073419;28;20456;-71
2021/12/25 15:12:36;;;;;;;11.10;7.67;;;;;;;;;;5073453;28;20458;-71
2021/12/25 15:15:06;;;;;;;14.60;8.87;;;;;;;;;;5073068;28;20495;-71
2021/12/25 15:17:34;;;;;;;9.77;8.20;;;;;;;;;;5073548;28;20483;-71
2021/12/25 15:20:02;;;;;;;15.30;9.43;;;;;;;;;;5073273;28;20458;-71
2021/12/25 15:22:29;;;;;;;36.30;21.60;;;;;;;;;;5073183;28;20451;-71
2021/12/25 15:24:58;;;;;;;92.47;47.60;;;;;;;;;;5072434;28;20491;-72
2021/12/25 15:27:27;;;;;;;22.20;14.80;;;;;;;;;;5073099;28;20463;-72
2021/12/25 15:29:56;;;;;;;24.57;13.03;;;;;;;;;;5073120;28;20470;-72